sensor_id;sensor_type;location;lat;lon;timestamp;temperature;humidity
12268;DHT22;6196;48.398;11.736;2023-07-31T00:01:55;14.90;99.90
12268;DHT22;6196;48.398;11.736;2023-07-31T00:04:22;14.90;99.90
12268;DHT22;6196;48.398;11.736;2023-07-31T00:06:49;14.80;99.90
12268;DHT22;6196;48.398;11.736;2023-07-31T00:09:16;14.80;99.90
12268;DHT22;6196;48.398;11.736;2023-07-31T00:11:43;14.70;99.90
12268;DHT22;6196;48.398;11.736;2023-07-31T00:14:10;14.70;99.90
12268;DHT22;6196;48.398;11.736;2023-07-31T00:16:37;14.60;99.90
12268;DHT22;6196;48.398;11.736;2023-07-31T00:19:04;14.70;99.90
12268;DHT22;6196;48.398;11.736;2023-07-31T00:21:31;14.60;99.90
12268;DHT22;6196;48.398;11.736;2023-07-31T00:23:58;14.50;99.90
12268;DHT22;6196;48.398;11.736;2023-07-31T00:26:25;14.50;99.90
12268;DHT22;6196;48.398;11.736;2023-07-31T00:28:52;14.50;99.90
12268;DHT22;6196;48.398;11.736;2023-07-31T00:31:19;14.40;99.90
12268;DHT22;6196;48.398;11.736;2023-07-31T00:33:46;14.40;99.90
12268;DHT22;6196;48.398;11.736;2023-07-31T00:36:12;14.30;99.90
12268;DHT22;6196;48.398;11.736;2023-07-31T00:38:39;14.30;99.90
12268;DHT22;6196;48.398;11.736;2023-07-31T00:41:06;14.20;99.90
12268;DHT22;6196;48.398;11.736;2023-07-31T00:43:33;14.20;99.90
12268;DHT22;6196;48.398;11.736;2023-07-31T00:46:00;14.20;99.90
12268;DHT22;6196;48.398;11.736;2023-07-31T00:48:28;14.10;99.90
12268;DHT22;6196;48.398;11.736;2023-07-31T00:50:55;14.00;99.90
12268;DHT22;6196;48.398;11.736;2023-07-31T00:53:22;14.00;99.90
12268;DHT22;6196;48.398;11.736;2023-07-31T00:55:50;14.00;99.90
12268;DHT22;6196;48.398;11.736;2023-07-31T00:58:17;14.00;99.90
12268;DHT22;6196;48.398;11.736;2023-07-31T01:00:43;13.90;99.90
12268;DHT22;6196;48.398;11.736;2023-07-31T01:03:11;14.00;99.90
12268;DHT22;6196;48.398;11.736;2023-07-31T01:05:56;14.00;99.90
12268;DHT22;6196;48.398;11.736;2023-07-31T01:11:43;14.00;99.90
12268;DHT22;6196;48.398;11.736;2023-07-31T01:14:14;13.90;99.90
12268;DHT22;6196;48.398;11.736;2023-07-31T01:16:41;13.80;99.90
12268;DHT22;6196;48.398;11.736;2023-07-31T01:19:09;13.80;99.90
12268;DHT22;6196;48.398;11.736;2023-07-31T01:27:24;13.90;99.90
12268;DHT22;6196;48.398;11.736;2023-07-31T01:30:16;13.90;99.90
12268;DHT22;6196;48.398;11.736;2023-07-31T01:32:48;13.70;99.90
12268;DHT22;6196;48.398;11.736;2023-07-31T01:35:15;13.70;99.90
12268;DHT22;6196;48.398;11.736;2023-07-31T01:37:42;13.60;99.90
12268;DHT22;6196;48.398;11.736;2023-07-31T01:40:10;13.70;99.90
12268;DHT22;6196;48.398;11.736;2023-07-31T01:42:37;13.80;99.90
12268;DHT22;6196;48.398;11.736;2023-07-31T01:45:04;13.80;99.90
12268;DHT22;6196;48.398;11.736;2023-07-31T01:47:32;13.90;99.90
12268;DHT22;6196;48.398;11.736;2023-07-31T01:49:59;14.00;99.90
12268;DHT22;6196;48.398;11.736;2023-07-31T01:52:26;14.00;99.90
12268;DHT22;6196;48.398;11.736;2023-07-31T01:54:53;14.00;99.90
12268;DHT22;6196;48.398;11.736;2023-07-31T01:57:20;14.10;99.90
12268;DHT22;6196;48.398;11.736;2023-07-31T01:59:46;14.10;99.90
12268;DHT22;6196;48.398;11.736;2023-07-31T02:02:13;14.10;99.90
12268;DHT22;6196;48.398;11.736;2023-07-31T02:04:40;14.00;99.90
12268;DHT22;6196;48.398;11.736;2023-07-31T02:07:07;13.90;99.90
12268;DHT22;6196;48.398;11.736;2023-07-31T02:09:34;13.90;99.90
12268;DHT22;6196;48.398;11.736;2023-07-31T02:12:01;13.90;99.90
12268;DHT22;6196;48.398;11.736;2023-07-31T02:14:28;13.90;99.90
12268;DHT22;6196;48.398;11.736;2023-07-31T02:16:55;14.00;99.90
12268;DHT22;6196;48.398;11.736;2023-07-31T02:19:22;14.10;99.90
12268;DHT22;6196;48.398;11.736;2023-07-31T02:21:49;14.10;99.90
12268;DHT22;6196;48.398;11.736;2023-07-31T02:24:16;14.10;99.90
12268;DHT22;6196;48.398;11.736;2023-07-31T02:26:43;14.10;99.90
12268;DHT22;6196;48.398;11.736;2023-07-31T02:29:09;14.10;99.90
12268;DHT22;6196;48.398;11.736;2023-07-31T02:31:36;14.10;99.90
12268;DHT22;6196;48.398;11.736;2023-07-31T02:34:03;14.10;99.90
12268;DHT22;6196;48.398;11.736;2023-07-31T02:36:30;14.00;99.90
12268;DHT22;6196;48.398;11.736;2023-07-31T02:38:57;14.00;99.90
12268;DHT22;6196;48.398;11.736;2023-07-31T02:41:24;14.00;99.90
12268;DHT22;6196;48.398;11.736;2023-07-31T02:43:51;14.00;99.90
12268;DHT22;6196;48.398;11.736;2023-07-31T02:46:19;13.90;99.90
12268;DHT22;6196;48.398;11.736;2023-07-31T02:48:46;13.90;99.90
12268;DHT22;6196;48.398;11.736;2023-07-31T02:51:13;13.80;99.90
12268;DHT22;6196;48.398;11.736;2023-07-31T02:53:40;13.60;99.90
12268;DHT22;6196;48.398;11.736;2023-07-31T02:56:07;13.60;99.90
12268;DHT22;6196;48.398;11.736;2023-07-31T02:58:34;13.60;99.90
12268;DHT22;6196;48.398;11.736;2023-07-31T03:01:01;13.50;99.90
12268;DHT22;6196;48.398;11.736;2023-07-31T03:03:28;13.50;99.90
12268;DHT22;6196;48.398;11.736;2023-07-31T03:05:55;13.40;99.90
12268;DHT22;6196;48.398;11.736;2023-07-31T03:08:23;13.30;99.90
12268;DHT22;6196;48.398;11.736;2023-07-31T03:10:50;13.30;99.90
12268;DHT22;6196;48.398;11.736;2023-07-31T03:13:16;13.40;99.90
12268;DHT22;6196;48.398;11.736;2023-07-31T03:15:43;13.30;99.90
12268;DHT22;6196;48.398;11.736;2023-07-31T03:18:10;13.30;99.90
12268;DHT22;6196;48.398;11.736;2023-07-31T03:20:41;13.30;99.90
12268;DHT22;6196;48.398;11.736;2023-07-31T03:23:09;13.30;99.90
12268;DHT22;6196;48.398;11.736;2023-07-31T03:25:35;13.30;99.90
12268;DHT22;6196;48.398;11.736;2023-07-31T03:28:02;13.20;99.90
12268;DHT22;6196;48.398;11.736;2023-07-31T03:30:29;13.20;99.90
12268;DHT22;6196;48.398;11.736;2023-07-31T03:32:56;13.20;99.90
12268;DHT22;6196;48.398;11.736;2023-07-31T03:35:23;13.10;99.90
12268;DHT22;6196;48.398;11.736;2023-07-31T03:37:50;13.10;99.90
12268;DHT22;6196;48.398;11.736;2023-07-31T03:40:17;13.10;99.90
12268;DHT22;6196;48.398;11.736;2023-07-31T03:42:44;13.10;99.90
12268;DHT22;6196;48.398;11.736;2023-07-31T03:45:11;13.00;99.90
12268;DHT22;6196;48.398;11.736;2023-07-31T03:47:38;13.00;99.90
12268;DHT22;6196;48.398;11.736;2023-07-31T03:50:05;13.00;99.90
12268;DHT22;6196;48.398;11.736;2023-07-31T03:52:32;13.10;99.90
12268;DHT22;6196;48.398;11.736;2023-07-31T03:54:59;13.10;99.90
12268;DHT22;6196;48.398;11.736;2023-07-31T03:57:26;13.10;99.90
12268;DHT22;6196;48.398;11.736;2023-07-31T03:59:53;13.20;99.90
12268;DHT22;6196;48.398;11.736;2023-07-31T04:02:20;13.30;99.90
12268;DHT22;6196;48.398;11.736;2023-07-31T04:04:47;13.40;99.90
12268;DHT22;6196;48.398;11.736;2023-07-31T04:07:14;13.50;99.90
12268;DHT22;6196;48.398;11.736;2023-07-31T04:09:41;13.50;99.90
12268;DHT22;6196;48.398;11.736;2023-07-31T04:12:08;13.50;99.90
12268;DHT22;6196;48.398;11.736;2023-07-31T04:14:35;13.50;99.90
12268;DHT22;6196;48.398;11.736;2023-07-31T04:17:02;13.50;99.90
12268;DHT22;6196;48.398;11.736;2023-07-31T04:19:28;13.60;99.90
12268;DHT22;6196;48.398;11.736;2023-07-31T04:21:55;13.60;99.90
12268;DHT22;6196;48.398;11.736;2023-07-31T04:24:22;13.60;99.90
12268;DHT22;6196;48.398;11.736;2023-07-31T04:26:53;13.60;99.90
12268;DHT22;6196;48.398;11.736;2023-07-31T04:29:20;13.70;99.90
12268;DHT22;6196;48.398;11.736;2023-07-31T04:31:48;13.70;99.90
12268;DHT22;6196;48.398;11.736;2023-07-31T04:34:15;13.80;99.90
12268;DHT22;6196;48.398;11.736;2023-07-31T04:36:42;13.90;99.90
12268;DHT22;6196;48.398;11.736;2023-07-31T04:39:09;13.90;99.90
12268;DHT22;6196;48.398;11.736;2023-07-31T04:41:36;14.00;99.90
12268;DHT22;6196;48.398;11.736;2023-07-31T04:44:03;14.10;99.90
12268;DHT22;6196;48.398;11.736;2023-07-31T04:46:30;14.20;99.90
12268;DHT22;6196;48.398;11.736;2023-07-31T04:48:57;14.40;99.90
12268;DHT22;6196;48.398;11.736;2023-07-31T04:51:24;14.40;99.90
12268;DHT22;6196;48.398;11.736;2023-07-31T04:53:51;14.60;99.90
12268;DHT22;6196;48.398;11.736;2023-07-31T04:56:18;14.70;99.90
12268;DHT22;6196;48.398;11.736;2023-07-31T04:58:45;14.80;99.90
12268;DHT22;6196;48.398;11.736;2023-07-31T05:01:12;14.80;99.90
12268;DHT22;6196;48.398;11.736;2023-07-31T05:03:39;14.90;99.90
12268;DHT22;6196;48.398;11.736;2023-07-31T05:06:06;14.90;99.90
12268;DHT22;6196;48.398;11.736;2023-07-31T05:08:33;15.00;99.90
12268;DHT22;6196;48.398;11.736;2023-07-31T05:11:00;15.10;99.90
12268;DHT22;6196;48.398;11.736;2023-07-31T05:13:27;15.20;99.90
12268;DHT22;6196;48.398;11.736;2023-07-31T05:15:54;15.30;99.90
12268;DHT22;6196;48.398;11.736;2023-07-31T05:18:21;15.50;99.90
12268;DHT22;6196;48.398;11.736;2023-07-31T05:20:48;15.60;99.90
12268;DHT22;6196;48.398;11.736;2023-07-31T05:23:15;15.70;99.90
12268;DHT22;6196;48.398;11.736;2023-07-31T05:25:42;15.80;99.90
12268;DHT22;6196;48.398;11.736;2023-07-31T05:28:09;16.00;99.90
12268;DHT22;6196;48.398;11.736;2023-07-31T05:30:36;16.10;99.90
12268;DHT22;6196;48.398;11.736;2023-07-31T05:33:02;16.30;99.90
12268;DHT22;6196;48.398;11.736;2023-07-31T05:35:29;16.40;99.90
12268;DHT22;6196;48.398;11.736;2023-07-31T05:37:56;16.50;99.90
12268;DHT22;6196;48.398;11.736;2023-07-31T05:40:23;16.70;99.90
12268;DHT22;6196;48.398;11.736;2023-07-31T05:42:50;16.80;99.90
12268;DHT22;6196;48.398;11.736;2023-07-31T05:45:18;16.80;99.90
12268;DHT22;6196;48.398;11.736;2023-07-31T05:47:45;16.80;99.90
12268;DHT22;6196;48.398;11.736;2023-07-31T05:50:12;17.10;99.90
12268;DHT22;6196;48.398;11.736;2023-07-31T05:52:40;17.50;99.90
12268;DHT22;6196;48.398;11.736;2023-07-31T05:55:08;17.60;99.90
12268;DHT22;6196;48.398;11.736;2023-07-31T05:57:35;17.60;99.90
12268;DHT22;6196;48.398;11.736;2023-07-31T06:00:03;17.70;99.90
12268;DHT22;6196;48.398;11.736;2023-07-31T06:02:30;17.80;99.90
12268;DHT22;6196;48.398;11.736;2023-07-31T06:04:59;18.00;99.90
12268;DHT22;6196;48.398;11.736;2023-07-31T06:07:27;18.30;99.90
12268;DHT22;6196;48.398;11.736;2023-07-31T06:09:54;18.40;99.90
12268;DHT22;6196;48.398;11.736;2023-07-31T06:12:21;18.50;99.90
12268;DHT22;6196;48.398;11.736;2023-07-31T06:14:48;18.60;99.90
12268;DHT22;6196;48.398;11.736;2023-07-31T06:17:16;18.80;99.90
12268;DHT22;6196;48.398;11.736;2023-07-31T06:19:42;19.00;99.90
12268;DHT22;6196;48.398;11.736;2023-07-31T06:22:09;19.10;99.90
12268;DHT22;6196;48.398;11.736;2023-07-31T06:24:36;19.20;99.90
12268;DHT22;6196;48.398;11.736;2023-07-31T06:27:03;19.40;99.90
12268;DHT22;6196;48.398;11.736;2023-07-31T06:29:32;19.30;99.90
12268;DHT22;6196;48.398;11.736;2023-07-31T06:31:59;19.40;99.90
12268;DHT22;6196;48.398;11.736;2023-07-31T06:34:29;19.30;99.90
12268;DHT22;6196;48.398;11.736;2023-07-31T06:36:56;19.50;99.90
12268;DHT22;6196;48.398;11.736;2023-07-31T06:39:23;19.80;99.90
12268;DHT22;6196;48.398;11.736;2023-07-31T06:41:50;19.90;99.90
12268;DHT22;6196;48.398;11.736;2023-07-31T06:44:17;20.00;99.90
12268;DHT22;6196;48.398;11.736;2023-07-31T06:46:44;20.10;99.90
12268;DHT22;6196;48.398;11.736;2023-07-31T06:49:11;20.10;99.90
12268;DHT22;6196;48.398;11.736;2023-07-31T06:51:39;20.20;99.90
12268;DHT22;6196;48.398;11.736;2023-07-31T06:54:06;20.10;99.90
12268;DHT22;6196;48.398;11.736;2023-07-31T06:56:34;19.90;99.90
12268;DHT22;6196;48.398;11.736;2023-07-31T06:59:04;19.50;99.90
12268;DHT22;6196;48.398;11.736;2023-07-31T07:01:31;19.40;99.90
12268;DHT22;6196;48.398;11.736;2023-07-31T07:03:58;19.40;99.90
12268;DHT22;6196;48.398;11.736;2023-07-31T07:06:25;19.30;99.90
12268;DHT22;6196;48.398;11.736;2023-07-31T07:08:52;19.70;99.90
12268;DHT22;6196;48.398;11.736;2023-07-31T07:11:28;19.40;99.90
12268;DHT22;6196;48.398;11.736;2023-07-31T07:13:55;19.40;99.90
12268;DHT22;6196;48.398;11.736;2023-07-31T07:16:22;19.70;99.90
12268;DHT22;6196;48.398;11.736;2023-07-31T07:18:49;19.80;99.90
12268;DHT22;6196;48.398;11.736;2023-07-31T07:21:30;20.10;99.90
12268;DHT22;6196;48.398;11.736;2023-07-31T07:23:57;20.40;99.90
12268;DHT22;6196;48.398;11.736;2023-07-31T07:26:23;20.30;99.90
12268;DHT22;6196;48.398;11.736;2023-07-31T07:28:53;20.60;99.90
12268;DHT22;6196;48.398;11.736;2023-07-31T07:31:20;20.70;99.90
12268;DHT22;6196;48.398;11.736;2023-07-31T07:33:47;20.80;99.90
12268;DHT22;6196;48.398;11.736;2023-07-31T07:36:14;20.70;99.90
12268;DHT22;6196;48.398;11.736;2023-07-31T07:38:41;20.70;99.90
12268;DHT22;6196;48.398;11.736;2023-07-31T07:41:08;20.60;99.90
12268;DHT22;6196;48.398;11.736;2023-07-31T07:43:35;20.70;99.90
12268;DHT22;6196;48.398;11.736;2023-07-31T07:46:02;21.00;99.90
12268;DHT22;6196;48.398;11.736;2023-07-31T07:48:29;21.40;99.90
12268;DHT22;6196;48.398;11.736;2023-07-31T07:50:56;21.90;99.90
12268;DHT22;6196;48.398;11.736;2023-07-31T07:53:23;22.40;99.90
12268;DHT22;6196;48.398;11.736;2023-07-31T07:55:50;23.00;99.90
12268;DHT22;6196;48.398;11.736;2023-07-31T07:58:17;22.90;99.90
12268;DHT22;6196;48.398;11.736;2023-07-31T08:00:50;23.00;99.90
12268;DHT22;6196;48.398;11.736;2023-07-31T08:03:17;23.50;99.90
12268;DHT22;6196;48.398;11.736;2023-07-31T08:05:44;23.60;99.90
12268;DHT22;6196;48.398;11.736;2023-07-31T08:08:15;23.80;99.90
12268;DHT22;6196;48.398;11.736;2023-07-31T08:10:43;23.90;99.90
12268;DHT22;6196;48.398;11.736;2023-07-31T08:13:13;24.10;99.90
12268;DHT22;6196;48.398;11.736;2023-07-31T08:15:42;23.30;99.90
12268;DHT22;6196;48.398;11.736;2023-07-31T08:18:10;23.10;99.90
12268;DHT22;6196;48.398;11.736;2023-07-31T08:20:38;22.90;99.90
12268;DHT22;6196;48.398;11.736;2023-07-31T08:23:05;23.00;99.90
12268;DHT22;6196;48.398;11.736;2023-07-31T08:25:35;23.60;99.90
12268;DHT22;6196;48.398;11.736;2023-07-31T08:28:03;24.00;99.90
12268;DHT22;6196;48.398;11.736;2023-07-31T08:30:32;24.00;99.90
12268;DHT22;6196;48.398;11.736;2023-07-31T08:33:00;23.60;99.90
12268;DHT22;6196;48.398;11.736;2023-07-31T08:35:27;23.60;99.90
12268;DHT22;6196;48.398;11.736;2023-07-31T08:37:56;23.20;99.90
12268;DHT22;6196;48.398;11.736;2023-07-31T08:40:23;23.30;99.90
12268;DHT22;6196;48.398;11.736;2023-07-31T08:42:53;23.20;99.90
12268;DHT22;6196;48.398;11.736;2023-07-31T08:45:21;23.00;99.90
12268;DHT22;6196;48.398;11.736;2023-07-31T08:47:50;23.00;99.90
12268;DHT22;6196;48.398;11.736;2023-07-31T08:50:19;23.20;99.90
12268;DHT22;6196;48.398;11.736;2023-07-31T08:52:47;23.00;99.90
12268;DHT22;6196;48.398;11.736;2023-07-31T08:55:15;22.90;99.90
12268;DHT22;6196;48.398;11.736;2023-07-31T08:57:43;22.40;99.90
12268;DHT22;6196;48.398;11.736;2023-07-31T09:00:11;22.40;99.90
12268;DHT22;6196;48.398;11.736;2023-07-31T09:05:23;22.30;99.90
12268;DHT22;6196;48.398;11.736;2023-07-31T09:07:51;22.10;99.90
12268;DHT22;6196;48.398;11.736;2023-07-31T09:10:18;22.10;99.90
12268;DHT22;6196;48.398;11.736;2023-07-31T09:12:45;21.80;99.90
12268;DHT22;6196;48.398;11.736;2023-07-31T09:15:13;21.80;99.90
12268;DHT22;6196;48.398;11.736;2023-07-31T09:18:02;21.70;99.90
12268;DHT22;6196;48.398;11.736;2023-07-31T09:20:29;21.60;99.90
12268;DHT22;6196;48.398;11.736;2023-07-31T09:22:56;21.50;99.90
12268;DHT22;6196;48.398;11.736;2023-07-31T09:25:25;21.20;99.90
12268;DHT22;6196;48.398;11.736;2023-07-31T09:28:07;21.40;99.90
12268;DHT22;6196;48.398;11.736;2023-07-31T09:30:49;21.60;99.90
12268;DHT22;6196;48.398;11.736;2023-07-31T09:33:18;22.00;99.90
12268;DHT22;6196;48.398;11.736;2023-07-31T09:39:11;22.20;99.90
12268;DHT22;6196;48.398;11.736;2023-07-31T09:41:43;21.80;99.90
12268;DHT22;6196;48.398;11.736;2023-07-31T09:44:12;22.00;99.90
12268;DHT22;6196;48.398;11.736;2023-07-31T09:46:39;21.90;99.90
12268;DHT22;6196;48.398;11.736;2023-07-31T09:49:10;22.20;99.90
12268;DHT22;6196;48.398;11.736;2023-07-31T09:51:39;22.60;99.90
12268;DHT22;6196;48.398;11.736;2023-07-31T09:54:16;23.10;99.90
12268;DHT22;6196;48.398;11.736;2023-07-31T09:56:47;23.50;99.90
12268;DHT22;6196;48.398;11.736;2023-07-31T09:59:17;23.80;99.90
12268;DHT22;6196;48.398;11.736;2023-07-31T10:01:50;23.90;99.90
12268;DHT22;6196;48.398;11.736;2023-07-31T10:04:18;24.50;99.90
12268;DHT22;6196;48.398;11.736;2023-07-31T10:06:49;24.80;99.90
12268;DHT22;6196;48.398;11.736;2023-07-31T10:09:18;25.00;99.90
12268;DHT22;6196;48.398;11.736;2023-07-31T10:11:50;25.20;99.90
12268;DHT22;6196;48.398;11.736;2023-07-31T10:14:24;24.80;99.90
12268;DHT22;6196;48.398;11.736;2023-07-31T10:16:51;24.40;99.90
12268;DHT22;6196;48.398;11.736;2023-07-31T10:19:20;24.50;99.90
12268;DHT22;6196;48.398;11.736;2023-07-31T10:21:49;24.70;99.90
12268;DHT22;6196;48.398;11.736;2023-07-31T10:24:16;24.50;99.90
12268;DHT22;6196;48.398;11.736;2023-07-31T10:26:45;24.60;99.90
12268;DHT22;6196;48.398;11.736;2023-07-31T10:29:15;25.00;99.90
12268;DHT22;6196;48.398;11.736;2023-07-31T10:31:44;25.50;99.90
12268;DHT22;6196;48.398;11.736;2023-07-31T10:34:13;24.90;99.90
12268;DHT22;6196;48.398;11.736;2023-07-31T10:36:40;24.80;99.90
12268;DHT22;6196;48.398;11.736;2023-07-31T10:39:36;25.30;99.90
12268;DHT22;6196;48.398;11.736;2023-07-31T10:42:13;25.80;99.90
12268;DHT22;6196;48.398;11.736;2023-07-31T10:44:49;26.00;99.90
12268;DHT22;6196;48.398;11.736;2023-07-31T10:47:17;25.30;99.90
12268;DHT22;6196;48.398;11.736;2023-07-31T10:49:48;25.70;99.90
12268;DHT22;6196;48.398;11.736;2023-07-31T10:52:20;26.30;99.90
12268;DHT22;6196;48.398;11.736;2023-07-31T10:55:24;26.10;99.90
12268;DHT22;6196;48.398;11.736;2023-07-31T10:57:54;25.30;99.90
12268;DHT22;6196;48.398;11.736;2023-07-31T11:00:43;25.00;99.90
12268;DHT22;6196;48.398;11.736;2023-07-31T11:03:16;25.60;99.90
12268;DHT22;6196;48.398;11.736;2023-07-31T11:05:51;25.90;99.90
12268;DHT22;6196;48.398;11.736;2023-07-31T11:08:45;26.40;99.90
12268;DHT22;6196;48.398;11.736;2023-07-31T11:11:19;27.10;99.90
12268;DHT22;6196;48.398;11.736;2023-07-31T11:13:49;27.40;99.90
12268;DHT22;6196;48.398;11.736;2023-07-31T11:16:18;27.10;99.90
12268;DHT22;6196;48.398;11.736;2023-07-31T11:18:47;27.00;99.90
12268;DHT22;6196;48.398;11.736;2023-07-31T11:21:20;26.20;99.90
12268;DHT22;6196;48.398;11.736;2023-07-31T11:23:53;25.70;99.90
12268;DHT22;6196;48.398;11.736;2023-07-31T11:26:27;25.70;99.90
12268;DHT22;6196;48.398;11.736;2023-07-31T11:28:54;26.40;99.90
12268;DHT22;6196;48.398;11.736;2023-07-31T11:31:21;26.40;99.90
12268;DHT22;6196;48.398;11.736;2023-07-31T11:33:48;26.20;99.90
12268;DHT22;6196;48.398;11.736;2023-07-31T11:36:17;26.30;99.90
12268;DHT22;6196;48.398;11.736;2023-07-31T11:38:45;26.60;99.90
12268;DHT22;6196;48.398;11.736;2023-07-31T11:41:14;26.10;99.90
12268;DHT22;6196;48.398;11.736;2023-07-31T11:43:43;26.60;99.90
12268;DHT22;6196;48.398;11.736;2023-07-31T11:46:10;27.00;99.90
12268;DHT22;6196;48.398;11.736;2023-07-31T11:48:37;27.10;99.90
12268;DHT22;6196;48.398;11.736;2023-07-31T11:51:06;27.40;99.90
12268;DHT22;6196;48.398;11.736;2023-07-31T11:53:40;26.50;99.90
12268;DHT22;6196;48.398;11.736;2023-07-31T11:56:12;26.70;99.90
12268;DHT22;6196;48.398;11.736;2023-07-31T11:58:41;27.00;99.90
12268;DHT22;6196;48.398;11.736;2023-07-31T12:01:10;26.00;99.90
12268;DHT22;6196;48.398;11.736;2023-07-31T12:03:38;25.80;99.90
12268;DHT22;6196;48.398;11.736;2023-07-31T12:06:05;25.90;99.90
12268;DHT22;6196;48.398;11.736;2023-07-31T12:08:32;25.60;99.90
12268;DHT22;6196;48.398;11.736;2023-07-31T12:11:04;25.80;99.90
12268;DHT22;6196;48.398;11.736;2023-07-31T12:13:32;26.30;99.90
12268;DHT22;6196;48.398;11.736;2023-07-31T12:16:02;26.60;99.90
12268;DHT22;6196;48.398;11.736;2023-07-31T12:18:34;26.80;99.90
12268;DHT22;6196;48.398;11.736;2023-07-31T12:21:05;27.10;99.90
12268;DHT22;6196;48.398;11.736;2023-07-31T12:23:35;26.40;99.90
12268;DHT22;6196;48.398;11.736;2023-07-31T12:26:06;26.60;99.90
12268;DHT22;6196;48.398;11.736;2023-07-31T12:28:41;25.90;99.90
12268;DHT22;6196;48.398;11.736;2023-07-31T12:31:14;25.60;99.90
12268;DHT22;6196;48.398;11.736;2023-07-31T12:33:47;25.60;99.90
12268;DHT22;6196;48.398;11.736;2023-07-31T12:36:18;26.20;99.90
12268;DHT22;6196;48.398;11.736;2023-07-31T12:38:47;26.80;99.90
12268;DHT22;6196;48.398;11.736;2023-07-31T12:41:14;26.70;99.90
12268;DHT22;6196;48.398;11.736;2023-07-31T12:43:43;26.90;99.90
12268;DHT22;6196;48.398;11.736;2023-07-31T12:46:10;27.00;99.90
12268;DHT22;6196;48.398;11.736;2023-07-31T12:48:38;27.10;99.90
12268;DHT22;6196;48.398;11.736;2023-07-31T12:51:06;27.50;99.90
12268;DHT22;6196;48.398;11.736;2023-07-31T12:53:36;28.20;99.90
12268;DHT22;6196;48.398;11.736;2023-07-31T12:56:03;28.40;99.90
12268;DHT22;6196;48.398;11.736;2023-07-31T12:58:30;27.20;99.90
12268;DHT22;6196;48.398;11.736;2023-07-31T13:00:57;26.80;99.90
12268;DHT22;6196;48.398;11.736;2023-07-31T13:03:24;27.30;99.90
12268;DHT22;6196;48.398;11.736;2023-07-31T13:05:52;27.70;99.90
12268;DHT22;6196;48.398;11.736;2023-07-31T13:08:19;27.20;99.90
12268;DHT22;6196;48.398;11.736;2023-07-31T13:10:46;27.50;99.90
12268;DHT22;6196;48.398;11.736;2023-07-31T13:13:13;27.50;99.90
12268;DHT22;6196;48.398;11.736;2023-07-31T13:15:40;27.20;99.90
12268;DHT22;6196;48.398;11.736;2023-07-31T13:18:09;27.30;99.90
12268;DHT22;6196;48.398;11.736;2023-07-31T13:20:35;27.30;99.90
12268;DHT22;6196;48.398;11.736;2023-07-31T13:23:02;27.30;99.90
12268;DHT22;6196;48.398;11.736;2023-07-31T13:25:29;27.20;99.90
12268;DHT22;6196;48.398;11.736;2023-07-31T13:27:56;27.20;99.90
12268;DHT22;6196;48.398;11.736;2023-07-31T13:30:26;27.40;99.90
12268;DHT22;6196;48.398;11.736;2023-07-31T13:32:54;27.40;99.90
12268;DHT22;6196;48.398;11.736;2023-07-31T13:35:21;27.90;99.90
12268;DHT22;6196;48.398;11.736;2023-07-31T13:37:48;28.20;99.90
12268;DHT22;6196;48.398;11.736;2023-07-31T13:40:15;27.90;99.90
12268;DHT22;6196;48.398;11.736;2023-07-31T13:42:41;28.00;99.90
12268;DHT22;6196;48.398;11.736;2023-07-31T13:45:08;28.40;99.90
12268;DHT22;6196;48.398;11.736;2023-07-31T13:47:35;28.40;99.90
12268;DHT22;6196;48.398;11.736;2023-07-31T13:50:04;28.10;99.90
12268;DHT22;6196;48.398;11.736;2023-07-31T13:52:31;28.10;99.90
12268;DHT22;6196;48.398;11.736;2023-07-31T13:54:58;28.60;99.90
12268;DHT22;6196;48.398;11.736;2023-07-31T13:57:25;28.20;99.90
12268;DHT22;6196;48.398;11.736;2023-07-31T13:59:52;28.40;99.90
12268;DHT22;6196;48.398;11.736;2023-07-31T14:02:19;28.70;99.90
12268;DHT22;6196;48.398;11.736;2023-07-31T14:04:46;29.00;99.90
12268;DHT22;6196;48.398;11.736;2023-07-31T14:07:13;28.90;99.90
12268;DHT22;6196;48.398;11.736;2023-07-31T14:09:40;28.50;99.90
12268;DHT22;6196;48.398;11.736;2023-07-31T14:12:07;28.40;99.90
12268;DHT22;6196;48.398;11.736;2023-07-31T14:14:34;28.30;99.90
12268;DHT22;6196;48.398;11.736;2023-07-31T14:17:01;29.00;99.90
12268;DHT22;6196;48.398;11.736;2023-07-31T14:19:29;29.20;99.90
12268;DHT22;6196;48.398;11.736;2023-07-31T14:21:58;28.10;99.90
12268;DHT22;6196;48.398;11.736;2023-07-31T14:24:37;27.90;99.90
12268;DHT22;6196;48.398;11.736;2023-07-31T14:27:05;28.30;99.90
12268;DHT22;6196;48.398;11.736;2023-07-31T14:29:32;28.60;99.90
12268;DHT22;6196;48.398;11.736;2023-07-31T14:31:59;27.30;99.90
12268;DHT22;6196;48.398;11.736;2023-07-31T14:34:27;27.50;99.90
12268;DHT22;6196;48.398;11.736;2023-07-31T14:36:54;27.20;99.90
12268;DHT22;6196;48.398;11.736;2023-07-31T14:39:20;26.90;99.90
12268;DHT22;6196;48.398;11.736;2023-07-31T14:41:47;27.00;99.90
12268;DHT22;6196;48.398;11.736;2023-07-31T14:44:15;26.70;99.90
12268;DHT22;6196;48.398;11.736;2023-07-31T14:46:42;26.90;99.90
12268;DHT22;6196;48.398;11.736;2023-07-31T14:49:09;26.70;99.90
12268;DHT22;6196;48.398;11.736;2023-07-31T14:51:36;26.50;99.90
12268;DHT22;6196;48.398;11.736;2023-07-31T14:54:03;26.40;99.90
12268;DHT22;6196;48.398;11.736;2023-07-31T14:56:30;26.30;99.90
12268;DHT22;6196;48.398;11.736;2023-07-31T14:58:57;26.60;99.90
12268;DHT22;6196;48.398;11.736;2023-07-31T15:01:24;26.80;99.90
12268;DHT22;6196;48.398;11.736;2023-07-31T15:03:52;26.70;99.90
12268;DHT22;6196;48.398;11.736;2023-07-31T15:06:19;26.50;99.90
12268;DHT22;6196;48.398;11.736;2023-07-31T15:08:45;26.50;99.90
12268;DHT22;6196;48.398;11.736;2023-07-31T15:11:12;26.40;99.90
12268;DHT22;6196;48.398;11.736;2023-07-31T15:13:42;26.80;99.90
12268;DHT22;6196;48.398;11.736;2023-07-31T15:16:09;26.70;99.90
12268;DHT22;6196;48.398;11.736;2023-07-31T15:18:36;26.30;99.90
12268;DHT22;6196;48.398;11.736;2023-07-31T15:21:03;26.60;99.90
12268;DHT22;6196;48.398;11.736;2023-07-31T15:23:30;26.40;99.90
12268;DHT22;6196;48.398;11.736;2023-07-31T15:25:57;26.40;99.90
12268;DHT22;6196;48.398;11.736;2023-07-31T15:28:24;26.00;99.90
12268;DHT22;6196;48.398;11.736;2023-07-31T15:30:51;26.00;99.90
12268;DHT22;6196;48.398;11.736;2023-07-31T15:33:18;26.10;99.90
12268;DHT22;6196;48.398;11.736;2023-07-31T15:35:45;25.90;99.90
12268;DHT22;6196;48.398;11.736;2023-07-31T15:38:13;26.00;99.90
12268;DHT22;6196;48.398;11.736;2023-07-31T15:40:40;25.80;99.90
12268;DHT22;6196;48.398;11.736;2023-07-31T15:43:07;25.60;99.90
12268;DHT22;6196;48.398;11.736;2023-07-31T15:45:34;25.70;99.90
12268;DHT22;6196;48.398;11.736;2023-07-31T15:48:01;25.60;99.90
12268;DHT22;6196;48.398;11.736;2023-07-31T15:50:28;25.60;99.90
12268;DHT22;6196;48.398;11.736;2023-07-31T15:52:55;25.60;99.90